sensor_id;sensor_type;location;lat;lon;timestamp;P1;durP1;ratioP1;P2;durP2;ratioP2
60851;SDS011;48553;50.766;2.900;2024-02-04T00:00:15;13.73;;;4.85;;
60851;SDS011;48553;50.766;2.900;2024-02-04T00:03:18;13.93;;;4.75;;
60851;SDS011;48553;50.766;2.900;2024-02-04T00:06:19;15.23;;;4.50;;
60851;SDS011;48553;50.766;2.900;2024-02-04T00:09:19;17.15;;;4.60;;
60851;SDS011;48553;50.766;2.900;2024-02-04T00:12:20;16.20;;;4.65;;
60851;SDS011;48553;50.766;2.900;2024-02-04T00:15:21;18.90;;;4.78;;
60851;SDS011;48553;50.766;2.900;2024-02-04T00:18:22;15.68;;;4.93;;
60851;SDS011;48553;50.766;2.900;2024-02-04T00:21:22;14.38;;;4.63;;
60851;SDS011;48553;50.766;2.900;2024-02-04T00:24:23;18.30;;;4.97;;
60851;SDS011;48553;50.766;2.900;2024-02-04T00:27:24;18.15;;;5.32;;
60851;SDS011;48553;50.766;2.900;2024-02-04T00:30:24;14.35;;;4.65;;
60851;SDS011;48553;50.766;2.900;2024-02-04T00:33:26;17.80;;;5.28;;
60851;SDS011;48553;50.766;2.900;2024-02-04T00:36:26;14.73;;;4.75;;
60851;SDS011;48553;50.766;2.900;2024-02-04T00:39:27;18.20;;;4.82;;
60851;SDS011;48553;50.766;2.900;2024-02-04T00:42:27;13.93;;;4.70;;
60851;SDS011;48553;50.766;2.900;2024-02-04T00:45:28;20.52;;;5.00;;
60851;SDS011;48553;50.766;2.900;2024-02-04T00:48:28;16.42;;;5.10;;
60851;SDS011;48553;50.766;2.900;2024-02-04T00:51:29;14.15;;;4.97;;
60851;SDS011;48553;50.766;2.900;2024-02-04T00:54:29;16.67;;;5.05;;
60851;SDS011;48553;50.766;2.900;2024-02-04T00:57:29;22.00;;;5.20;;
60851;SDS011;48553;50.766;2.900;2024-02-04T01:00:30;14.38;;;4.70;;
60851;SDS011;48553;50.766;2.900;2024-02-04T01:03:30;15.73;;;4.88;;
60851;SDS011;48553;50.766;2.900;2024-02-04T01:06:31;14.18;;;5.00;;
60851;SDS011;48553;50.766;2.900;2024-02-04T01:09:32;13.50;;;4.75;;
60851;SDS011;48553;50.766;2.900;2024-02-04T01:12:32;15.88;;;4.88;;
60851;SDS011;48553;50.766;2.900;2024-02-04T01:15:33;18.00;;;4.75;;
60851;SDS011;48553;50.766;2.900;2024-02-04T01:18:33;15.05;;;5.00;;
60851;SDS011;48553;50.766;2.900;2024-02-04T01:21:34;17.38;;;5.03;;
60851;SDS011;48553;50.766;2.900;2024-02-04T01:24:34;19.42;;;4.88;;
60851;SDS011;48553;50.766;2.900;2024-02-04T01:27:34;18.13;;;5.22;;
60851;SDS011;48553;50.766;2.900;2024-02-04T01:30:35;19.23;;;5.30;;
60851;SDS011;48553;50.766;2.900;2024-02-04T01:33:37;19.83;;;4.85;;
60851;SDS011;48553;50.766;2.900;2024-02-04T01:36:37;15.95;;;4.88;;
60851;SDS011;48553;50.766;2.900;2024-02-04T01:39:37;15.43;;;4.72;;
60851;SDS011;48553;50.766;2.900;2024-02-04T01:42:38;16.48;;;4.30;;
60851;SDS011;48553;50.766;2.900;2024-02-04T01:45:38;20.10;;;4.63;;
60851;SDS011;48553;50.766;2.900;2024-02-04T01:48:39;18.05;;;4.65;;
60851;SDS011;48553;50.766;2.900;2024-02-04T01:51:39;18.23;;;4.25;;
60851;SDS011;48553;50.766;2.900;2024-02-04T01:54:40;15.05;;;4.53;;
60851;SDS011;48553;50.766;2.900;2024-02-04T01:57:42;18.08;;;4.70;;
60851;SDS011;48553;50.766;2.900;2024-02-04T02:00:43;26.15;;;5.80;;
60851;SDS011;48553;50.766;2.900;2024-02-04T02:03:45;20.58;;;5.30;;
60851;SDS011;48553;50.766;2.900;2024-02-04T02:06:45;15.95;;;5.22;;
60851;SDS011;48553;50.766;2.900;2024-02-04T02:09:47;19.38;;;5.47;;
60851;SDS011;48553;50.766;2.900;2024-02-04T02:12:51;22.40;;;6.13;;
60851;SDS011;48553;50.766;2.900;2024-02-04T02:15:58;18.08;;;5.30;;
60851;SDS011;48553;50.766;2.900;2024-02-04T02:22:19;22.70;;;5.72;;
60851;SDS011;48553;50.766;2.900;2024-02-04T02:25:26;22.85;;;5.65;;
60851;SDS011;48553;50.766;2.900;2024-02-04T02:28:27;28.17;;;5.95;;
60851;SDS011;48553;50.766;2.900;2024-02-04T02:31:27;23.63;;;5.43;;
60851;SDS011;48553;50.766;2.900;2024-02-04T02:34:28;23.00;;;5.78;;
60851;SDS011;48553;50.766;2.900;2024-02-04T02:41:03;30.35;;;6.00;;
60851;SDS011;48553;50.766;2.900;2024-02-04T02:44:06;23.77;;;5.70;;
60851;SDS011;48553;50.766;2.900;2024-02-04T02:47:08;21.73;;;5.70;;
60851;SDS011;48553;50.766;2.900;2024-02-04T02:50:10;28.92;;;6.25;;
60851;SDS011;48553;50.766;2.900;2024-02-04T02:53:10;26.75;;;5.78;;
60851;SDS011;48553;50.766;2.900;2024-02-04T02:56:11;25.23;;;6.18;;
60851;SDS011;48553;50.766;2.900;2024-02-04T02:59:11;19.48;;;5.97;;
60851;SDS011;48553;50.766;2.900;2024-02-04T03:02:12;22.65;;;5.38;;
60851;SDS011;48553;50.766;2.900;2024-02-04T03:05:16;22.30;;;5.53;;
60851;SDS011;48553;50.766;2.900;2024-02-04T03:08:17;19.08;;;5.45;;
60851;SDS011;48553;50.766;2.900;2024-02-04T03:11:17;19.75;;;5.28;;
60851;SDS011;48553;50.766;2.900;2024-02-04T03:14:18;19.42;;;5.47;;
60851;SDS011;48553;50.766;2.900;2024-02-04T03:17:18;25.10;;;5.60;;
60851;SDS011;48553;50.766;2.900;2024-02-04T03:20:20;22.95;;;5.78;;
60851;SDS011;48553;50.766;2.900;2024-02-04T03:23:21;21.58;;;5.68;;
60851;SDS011;48553;50.766;2.900;2024-02-04T03:26:21;20.08;;;6.00;;
60851;SDS011;48553;50.766;2.900;2024-02-04T03:29:22;21.90;;;6.32;;
60851;SDS011;48553;50.766;2.900;2024-02-04T03:32:22;26.08;;;6.07;;
60851;SDS011;48553;50.766;2.900;2024-02-04T03:35:22;20.38;;;5.97;;
60851;SDS011;48553;50.766;2.900;2024-02-04T03:38:23;19.55;;;6.15;;
60851;SDS011;48553;50.766;2.900;2024-02-04T03:41:23;23.23;;;6.32;;
60851;SDS011;48553;50.766;2.900;2024-02-04T03:44:23;22.75;;;6.60;;
60851;SDS011;48553;50.766;2.900;2024-02-04T03:47:24;17.98;;;6.60;;
60851;SDS011;48553;50.766;2.900;2024-02-04T03:50:24;21.90;;;6.32;;
60851;SDS011;48553;50.766;2.900;2024-02-04T03:53:25;24.92;;;6.75;;
60851;SDS011;48553;50.766;2.900;2024-02-04T03:56:25;21.35;;;7.45;;
60851;SDS011;48553;50.766;2.900;2024-02-04T03:59:26;17.10;;;6.75;;
60851;SDS011;48553;50.766;2.900;2024-02-04T04:02:26;21.42;;;6.97;;
60851;SDS011;48553;50.766;2.900;2024-02-04T04:05:26;20.65;;;6.88;;
60851;SDS011;48553;50.766;2.900;2024-02-04T04:08:27;21.63;;;6.28;;
60851;SDS011;48553;50.766;2.900;2024-02-04T04:11:27;25.58;;;6.70;;
60851;SDS011;48553;50.766;2.900;2024-02-04T04:14:28;25.15;;;6.78;;
60851;SDS011;48553;50.766;2.900;2024-02-04T04:17:28;23.15;;;6.82;;
60851;SDS011;48553;50.766;2.900;2024-02-04T04:20:29;27.08;;;6.93;;
60851;SDS011;48553;50.766;2.900;2024-02-04T04:23:29;23.73;;;7.60;;
60851;SDS011;48553;50.766;2.900;2024-02-04T04:26:29;22.25;;;7.10;;
60851;SDS011;48553;50.766;2.900;2024-02-04T04:29:31;22.15;;;7.07;;
60851;SDS011;48553;50.766;2.900;2024-02-04T04:32:32;18.67;;;6.25;;
60851;SDS011;48553;50.766;2.900;2024-02-04T04:35:32;23.85;;;7.00;;
60851;SDS011;48553;50.766;2.900;2024-02-04T04:38:32;21.38;;;6.85;;
60851;SDS011;48553;50.766;2.900;2024-02-04T04:41:33;22.50;;;6.40;;
60851;SDS011;48553;50.766;2.900;2024-02-04T04:44:33;19.80;;;7.50;;
60851;SDS011;48553;50.766;2.900;2024-02-04T04:47:34;21.80;;;7.35;;
60851;SDS011;48553;50.766;2.900;2024-02-04T04:50:34;20.48;;;6.65;;
60851;SDS011;48553;50.766;2.900;2024-02-04T04:53:36;24.98;;;7.45;;
60851;SDS011;48553;50.766;2.900;2024-02-04T04:56:39;21.15;;;7.20;;
60851;SDS011;48553;50.766;2.900;2024-02-04T04:59:40;25.00;;;7.60;;
60851;SDS011;48553;50.766;2.900;2024-02-04T05:02:41;23.15;;;7.82;;
60851;SDS011;48553;50.766;2.900;2024-02-04T05:05:43;26.10;;;7.78;;
60851;SDS011;48553;50.766;2.900;2024-02-04T05:08:45;22.23;;;7.00;;
60851;SDS011;48553;50.766;2.900;2024-02-04T05:11:45;28.75;;;7.40;;
60851;SDS011;48553;50.766;2.900;2024-02-04T05:14:45;22.73;;;7.35;;
60851;SDS011;48553;50.766;2.900;2024-02-04T05:17:46;21.23;;;7.25;;
60851;SDS011;48553;50.766;2.900;2024-02-04T05:20:46;20.90;;;7.45;;
60851;SDS011;48553;50.766;2.900;2024-02-04T05:23:48;21.58;;;7.25;;
60851;SDS011;48553;50.766;2.900;2024-02-04T05:26:48;20.70;;;7.95;;
60851;SDS011;48553;50.766;2.900;2024-02-04T05:29:49;18.27;;;6.95;;
60851;SDS011;48553;50.766;2.900;2024-02-04T05:32:49;18.38;;;6.15;;
60851;SDS011;48553;50.766;2.900;2024-02-04T05:35:50;20.52;;;6.88;;
60851;SDS011;48553;50.766;2.900;2024-02-04T05:38:50;18.13;;;6.28;;
60851;SDS011;48553;50.766;2.900;2024-02-04T05:41:50;19.45;;;6.40;;
60851;SDS011;48553;50.766;2.900;2024-02-04T05:44:51;18.27;;;5.80;;
60851;SDS011;48553;50.766;2.900;2024-02-04T05:47:51;19.40;;;5.65;;
60851;SDS011;48553;50.766;2.900;2024-02-04T05:50:52;14.23;;;5.13;;
60851;SDS011;48553;50.766;2.900;2024-02-04T05:53:52;16.45;;;5.50;;
60851;SDS011;48553;50.766;2.900;2024-02-04T05:56:53;15.50;;;5.30;;
60851;SDS011;48553;50.766;2.900;2024-02-04T05:59:53;15.57;;;4.93;;
60851;SDS011;48553;50.766;2.900;2024-02-04T06:02:55;15.13;;;4.47;;
60851;SDS011;48553;50.766;2.900;2024-02-04T06:05:55;12.90;;;4.82;;
60851;SDS011;48553;50.766;2.900;2024-02-04T06:08:57;13.57;;;4.70;;
60851;SDS011;48553;50.766;2.900;2024-02-04T06:11:58;12.10;;;4.22;;
60851;SDS011;48553;50.766;2.900;2024-02-04T06:14:58;13.90;;;4.55;;
60851;SDS011;48553;50.766;2.900;2024-02-04T06:17:59;14.18;;;4.05;;
60851;SDS011;48553;50.766;2.900;2024-02-04T06:20:59;17.25;;;4.70;;
60851;SDS011;48553;50.766;2.900;2024-02-04T06:24:00;9.93;;;3.88;;
60851;SDS011;48553;50.766;2.900;2024-02-04T06:27:00;12.93;;;4.00;;
60851;SDS011;48553;50.766;2.900;2024-02-04T06:30:01;11.27;;;4.00;;
60851;SDS011;48553;50.766;2.900;2024-02-04T06:33:01;15.55;;;4.07;;
60851;SDS011;48553;50.766;2.900;2024-02-04T06:36:02;12.00;;;3.72;;
60851;SDS011;48553;50.766;2.900;2024-02-04T06:39:03;16.70;;;4.20;;
60851;SDS011;48553;50.766;2.900;2024-02-04T06:42:03;11.40;;;4.15;;
60851;SDS011;48553;50.766;2.900;2024-02-04T06:45:04;11.75;;;3.85;;
60851;SDS011;48553;50.766;2.900;2024-02-04T06:48:05;14.18;;;4.00;;
60851;SDS011;48553;50.766;2.900;2024-02-04T06:51:05;12.82;;;3.83;;
60851;SDS011;48553;50.766;2.900;2024-02-04T06:54:06;11.88;;;4.00;;
60851;SDS011;48553;50.766;2.900;2024-02-04T06:57:06;13.32;;;3.85;;
60851;SDS011;48553;50.766;2.900;2024-02-04T07:00:07;11.75;;;4.47;;
60851;SDS011;48553;50.766;2.900;2024-02-04T07:03:11;12.23;;;4.20;;
60851;SDS011;48553;50.766;2.900;2024-02-04T07:06:11;12.07;;;4.47;;
60851;SDS011;48553;50.766;2.900;2024-02-04T07:09:12;13.98;;;5.35;;
60851;SDS011;48553;50.766;2.900;2024-02-04T07:12:12;13.63;;;4.88;;
60851;SDS011;48553;50.766;2.900;2024-02-04T07:15:13;14.60;;;4.95;;
60851;SDS011;48553;50.766;2.900;2024-02-04T07:18:13;14.50;;;4.80;;
60851;SDS011;48553;50.766;2.900;2024-02-04T07:21:13;14.95;;;4.38;;
60851;SDS011;48553;50.766;2.900;2024-02-04T07:24:14;12.80;;;3.88;;
60851;SDS011;48553;50.766;2.900;2024-02-04T07:27:14;9.38;;;4.15;;
60851;SDS011;48553;50.766;2.900;2024-02-04T07:30:15;13.73;;;4.03;;
60851;SDS011;48553;50.766;2.900;2024-02-04T07:33:16;12.27;;;3.72;;
60851;SDS011;48553;50.766;2.900;2024-02-04T07:36:16;11.02;;;3.30;;
60851;SDS011;48553;50.766;2.900;2024-02-04T07:39:16;15.05;;;3.67;;
60851;SDS011;48553;50.766;2.900;2024-02-04T07:42:17;15.18;;;3.45;;
60851;SDS011;48553;50.766;2.900;2024-02-04T07:45:18;11.43;;;2.75;;
60851;SDS011;48553;50.766;2.900;2024-02-04T07:48:18;12.23;;;3.17;;
60851;SDS011;48553;50.766;2.900;2024-02-04T07:51:19;12.43;;;3.00;;
60851;SDS011;48553;50.766;2.900;2024-02-04T07:54:20;9.38;;;2.78;;
60851;SDS011;48553;50.766;2.900;2024-02-04T07:57:20;9.38;;;2.83;;
60851;SDS011;48553;50.766;2.900;2024-02-04T08:00:21;11.75;;;3.20;;
60851;SDS011;48553;50.766;2.900;2024-02-04T08:03:21;10.77;;;2.80;;
60851;SDS011;48553;50.766;2.900;2024-02-04T08:06:22;12.38;;;3.30;;
60851;SDS011;48553;50.766;2.900;2024-02-04T08:09:22;11.38;;;3.13;;
60851;SDS011;48553;50.766;2.900;2024-02-04T08:12:23;9.50;;;3.13;;
60851;SDS011;48553;50.766;2.900;2024-02-04T08:15:23;9.98;;;3.33;;
60851;SDS011;48553;50.766;2.900;2024-02-04T08:18:24;9.27;;;2.83;;
60851;SDS011;48553;50.766;2.900;2024-02-04T08:21:24;11.13;;;3.08;;
60851;SDS011;48553;50.766;2.900;2024-02-04T08:24:25;9.10;;;2.92;;
60851;SDS011;48553;50.766;2.900;2024-02-04T08:27:25;9.70;;;2.85;;
60851;SDS011;48553;50.766;2.900;2024-02-04T08:30:26;9.68;;;3.30;;
60851;SDS011;48553;50.766;2.900;2024-02-04T08:33:26;12.32;;;2.75;;
60851;SDS011;48553;50.766;2.900;2024-02-04T08:36:27;8.35;;;3.00;;
60851;SDS011;48553;50.766;2.900;2024-02-04T08:39:27;10.43;;;3.40;;
60851;SDS011;48553;50.766;2.900;2024-02-04T08:42:29;12.52;;;3.80;;
60851;SDS011;48553;50.766;2.900;2024-02-04T08:45:30;12.48;;;4.00;;
60851;SDS011;48553;50.766;2.900;2024-02-04T08:48:30;13.13;;;4.78;;
60851;SDS011;48553;50.766;2.900;2024-02-04T08:51:31;14.60;;;4.80;;
60851;SDS011;48553;50.766;2.900;2024-02-04T08:54:31;16.00;;;5.13;;
60851;SDS011;48553;50.766;2.900;2024-02-04T08:57:32;13.02;;;4.78;;
60851;SDS011;48553;50.766;2.900;2024-02-04T09:00:32;16.42;;;5.20;;
60851;SDS011;48553;50.766;2.900;2024-02-04T09:03:33;12.98;;;4.75;;
60851;SDS011;48553;50.766;2.900;2024-02-04T09:06:34;10.50;;;4.53;;
60851;SDS011;48553;50.766;2.900;2024-02-04T09:09:34;12.88;;;5.03;;
60851;SDS011;48553;50.766;2.900;2024-02-04T09:12:35;14.98;;;5.10;;
60851;SDS011;48553;50.766;2.900;2024-02-04T09:15:35;12.57;;;4.68;;
60851;SDS011;48553;50.766;2.900;2024-02-04T09:18:36;13.55;;;4.43;;
60851;SDS011;48553;50.766;2.900;2024-02-04T09:21:36;14.18;;;4.32;;
60851;SDS011;48553;50.766;2.900;2024-02-04T09:24:37;15.30;;;3.80;;
60851;SDS011;48553;50.766;2.900;2024-02-04T09:27:37;15.15;;;4.00;;
60851;SDS011;48553;50.766;2.900;2024-02-04T09:30:38;12.90;;;3.38;;
60851;SDS011;48553;50.766;2.900;2024-02-04T09:33:38;11.43;;;3.30;;
60851;SDS011;48553;50.766;2.900;2024-02-04T09:36:40;6.93;;;2.55;;
60851;SDS011;48553;50.766;2.900;2024-02-04T09:39:40;7.40;;;2.30;;
60851;SDS011;48553;50.766;2.900;2024-02-04T09:42:41;8.43;;;2.20;;
60851;SDS011;48553;50.766;2.900;2024-02-04T09:45:42;8.80;;;2.13;;
60851;SDS011;48553;50.766;2.900;2024-02-04T09:48:42;9.60;;;1.98;;
60851;SDS011;48553;50.766;2.900;2024-02-04T09:51:45;8.00;;;1.90;;
60851;SDS011;48553;50.766;2.900;2024-02-04T09:54:48;7.18;;;1.95;;
60851;SDS011;48553;50.766;2.900;2024-02-04T09:57:50;9.55;;;2.30;;
60851;SDS011;48553;50.766;2.900;2024-02-04T10:00:50;8.75;;;2.00;;
60851;SDS011;48553;50.766;2.900;2024-02-04T10:03:51;10.05;;;2.13;;
60851;SDS011;48553;50.766;2.900;2024-02-04T10:06:51;7.47;;;2.15;;
60851;SDS011;48553;50.766;2.900;2024-02-04T10:09:52;9.73;;;1.98;;
60851;SDS011;48553;50.766;2.900;2024-02-04T10:12:52;9.65;;;2.28;;
60851;SDS011;48553;50.766;2.900;2024-02-04T10:15:54;8.02;;;2.08;;
60851;SDS011;48553;50.766;2.900;2024-02-04T10:18:55;8.75;;;1.70;;
60851;SDS011;48553;50.766;2.900;2024-02-04T10:22:00;5.72;;;1.58;;
60851;SDS011;48553;50.766;2.900;2024-02-04T10:25:07;11.18;;;1.58;;
60851;SDS011;48553;50.766;2.900;2024-02-04T10:28:08;7.15;;;1.70;;
60851;SDS011;48553;50.766;2.900;2024-02-04T10:31:09;7.97;;;1.73;;
60851;SDS011;48553;50.766;2.900;2024-02-04T10:34:12;10.85;;;1.88;;
60851;SDS011;48553;50.766;2.900;2024-02-04T10:37:12;8.50;;;1.80;;
60851;SDS011;48553;50.766;2.900;2024-02-04T10:40:13;7.93;;;1.55;;
60851;SDS011;48553;50.766;2.900;2024-02-04T10:43:13;7.70;;;1.80;;
60851;SDS011;48553;50.766;2.900;2024-02-04T10:46:22;9.30;;;1.85;;
60851;SDS011;48553;50.766;2.900;2024-02-04T10:49:24;7.40;;;1.58;;
60851;SDS011;48553;50.766;2.900;2024-02-04T10:52:26;7.00;;;1.90;;
60851;SDS011;48553;50.766;2.900;2024-02-04T10:55:28;7.50;;;1.92;;
60851;SDS011;48553;50.766;2.900;2024-02-04T10:58:30;7.72;;;1.60;;
60851;SDS011;48553;50.766;2.900;2024-02-04T11:01:33;10.38;;;1.80;;
60851;SDS011;48553;50.766;2.900;2024-02-04T11:04:33;8.52;;;2.00;;
60851;SDS011;48553;50.766;2.900;2024-02-04T11:07:35;7.72;;;2.30;;
60851;SDS011;48553;50.766;2.900;2024-02-04T11:10:36;9.85;;;2.78;;
60851;SDS011;48553;50.766;2.900;2024-02-04T11:13:39;9.27;;;2.42;;
60851;SDS011;48553;50.766;2.900;2024-02-04T11:26:39;8.10;;;1.70;;
60851;SDS011;48553;50.766;2.900;2024-02-04T11:29:41;6.25;;;1.90;;
60851;SDS011;48553;50.766;2.900;2024-02-04T11:32:41;10.88;;;2.22;;
60851;SDS011;48553;50.766;2.900;2024-02-04T11:35:42;10.05;;;2.05;;
60851;SDS011;48553;50.766;2.900;2024-02-04T11:38:42;8.20;;;2.05;;
60851;SDS011;48553;50.766;2.900;2024-02-04T11:41:46;7.70;;;2.22;;
60851;SDS011;48553;50.766;2.900;2024-02-04T11:44:48;11.50;;;2.85;;
60851;SDS011;48553;50.766;2.900;2024-02-04T11:47:49;9.65;;;2.67;;
60851;SDS011;48553;50.766;2.900;2024-02-04T11:51:00;14.82;;;2.90;;
60851;SDS011;48553;50.766;2.900;2024-02-04T11:54:01;12.77;;;2.55;;
60851;SDS011;48553;50.766;2.900;2024-02-04T11:57:04;11.02;;;2.75;;
60851;SDS011;48553;50.766;2.900;2024-02-04T12:00:05;15.35;;;3.25;;
60851;SDS011;48553;50.766;2.900;2024-02-04T12:03:10;11.32;;;2.60;;
60851;SDS011;48553;50.766;2.900;2024-02-04T12:06:11;13.65;;;3.22;;
60851;SDS011;48553;50.766;2.900;2024-02-04T12:09:18;10.45;;;2.50;;
60851;SDS011;48553;50.766;2.900;2024-02-04T12:12:19;9.50;;;2.45;;
60851;SDS011;48553;50.766;2.900;2024-02-04T12:15:20;15.13;;;2.97;;
60851;SDS011;48553;50.766;2.900;2024-02-04T12:18:20;12.75;;;2.90;;
60851;SDS011;48553;50.766;2.900;2024-02-04T12:21:21;14.10;;;2.70;;
60851;SDS011;48553;50.766;2.900;2024-02-04T12:24:21;14.75;;;3.08;;
60851;SDS011;48553;50.766;2.900;2024-02-04T12:27:22;11.57;;;2.95;;
60851;SDS011;48553;50.766;2.900;2024-02-04T12:30:23;8.32;;;2.42;;
60851;SDS011;48553;50.766;2.900;2024-02-04T12:33:23;11.55;;;2.60;;
60851;SDS011;48553;50.766;2.900;2024-02-04T12:36:25;12.20;;;2.63;;
60851;SDS011;48553;50.766;2.900;2024-02-04T12:39:27;14.50;;;3.10;;
60851;SDS011;48553;50.766;2.900;2024-02-04T12:42:28;9.70;;;2.50;;
60851;SDS011;48553;50.766;2.900;2024-02-04T12:45:29;10.43;;;2.60;;
60851;SDS011;48553;50.766;2.900;2024-02-04T12:48:29;11.45;;;2.80;;
60851;SDS011;48553;50.766;2.900;2024-02-04T12:51:31;11.15;;;2.67;;
60851;SDS011;48553;50.766;2.900;2024-02-04T12:54:43;11.95;;;2.63;;
60851;SDS011;48553;50.766;2.900;2024-02-04T12:57:44;13.32;;;2.50;;
60851;SDS011;48553;50.766;2.900;2024-02-04T13:00:44;11.13;;;2.60;;
60851;SDS011;48553;50.766;2.900;2024-02-04T13:03:45;11.00;;;2.50;;
60851;SDS011;48553;50.766;2.900;2024-02-04T13:06:46;9.23;;;2.30;;
60851;SDS011;48553;50.766;2.900;2024-02-04T13:09:57;13.23;;;2.50;;
60851;SDS011;48553;50.766;2.900;2024-02-04T13:16:04;17.63;;;2.53;;
60851;SDS011;48553;50.766;2.900;2024-02-04T13:19:05;11.02;;;2.33;;
60851;SDS011;48553;50.766;2.900;2024-02-04T13:22:06;11.98;;;2.50;;
60851;SDS011;48553;50.766;2.900;2024-02-04T13:25:07;9.82;;;2.50;;
60851;SDS011;48553;50.766;2.900;2024-02-04T13:28:07;15.10;;;3.28;;
60851;SDS011;48553;50.766;2.900;2024-02-04T13:31:08;9.95;;;2.75;;
60851;SDS011;48553;50.766;2.900;2024-02-04T13:34:08;13.93;;;2.63;;
60851;SDS011;48553;50.766;2.900;2024-02-04T13:37:08;12.60;;;2.50;;
60851;SDS011;48553;50.766;2.900;2024-02-04T13:40:09;11.63;;;2.80;;
60851;SDS011;48553;50.766;2.900;2024-02-04T13:43:10;10.80;;;2.92;;
60851;SDS011;48553;50.766;2.900;2024-02-04T13:46:10;17.77;;;2.97;;
60851;SDS011;48553;50.766;2.900;2024-02-04T13:49:11;19.08;;;3.20;;
60851;SDS011;48553;50.766;2.900;2024-02-04T13:52:14;14.27;;;2.83;;
60851;SDS011;48553;50.766;2.900;2024-02-04T13:55:14;14.15;;;3.08;;
60851;SDS011;48553;50.766;2.900;2024-02-04T13:58:15;10.80;;;2.97;;
60851;SDS011;48553;50.766;2.900;2024-02-04T14:01:18;21.65;;;3.00;;
60851;SDS011;48553;50.766;2.900;2024-02-04T14:04:20;16.20;;;3.08;;
60851;SDS011;48553;50.766;2.900;2024-02-04T14:07:21;12.00;;;2.97;;
60851;SDS011;48553;50.766;2.900;2024-02-04T14:10:21;12.55;;;3.15;;
60851;SDS011;48553;50.766;2.900;2024-02-04T14:13:22;14.35;;;2.90;;
60851;SDS011;48553;50.766;2.900;2024-02-04T14:16:22;16.08;;;3.00;;
60851;SDS011;48553;50.766;2.900;2024-02-04T14:19:23;15.32;;;3.25;;
60851;SDS011;48553;50.766;2.900;2024-02-04T14:22:23;10.05;;;2.45;;
60851;SDS011;48553;50.766;2.900;2024-02-04T14:25:24;18.30;;;3.10;;
60851;SDS011;48553;50.766;2.900;2024-02-04T14:28:24;13.05;;;2.42;;
60851;SDS011;48553;50.766;2.900;2024-02-04T14:31:25;14.20;;;2.65;;
60851;SDS011;48553;50.766;2.900;2024-02-04T14:34:25;15.48;;;2.75;;
60851;SDS011;48553;50.766;2.900;2024-02-04T14:37:27;13.55;;;2.72;;
60851;SDS011;48553;50.766;2.900;2024-02-04T14:40:28;7.28;;;2.42;;
60851;SDS011;48553;50.766;2.900;2024-02-04T14:43:29;10.25;;;2.70;;
60851;SDS011;48553;50.766;2.900;2024-02-04T14:46:30;9.02;;;2.58;;
60851;SDS011;48553;50.766;2.900;2024-02-04T14:49:31;16.52;;;3.10;;
60851;SDS011;48553;50.766;2.900;2024-02-04T14:52:31;11.27;;;2.65;;
60851;SDS011;48553;50.766;2.900;2024-02-04T14:55:32;14.68;;;3.10;;
60851;SDS011;48553;50.766;2.900;2024-02-04T14:58:35;13.68;;;2.72;;
60851;SDS011;48553;50.766;2.900;2024-02-04T15:01:37;11.55;;;2.47;;
60851;SDS011;48553;50.766;2.900;2024-02-04T15:04:38;17.02;;;2.50;;
60851;SDS011;48553;50.766;2.900;2024-02-04T15:07:39;12.82;;;2.97;;
60851;SDS011;48553;50.766;2.900;2024-02-04T15:10:39;16.88;;;2.53;;
60851;SDS011;48553;50.766;2.900;2024-02-04T15:13:40;13.38;;;2.67;;
60851;SDS011;48553;50.766;2.900;2024-02-04T15:16:42;10.40;;;2.47;;
60851;SDS011;48553;50.766;2.900;2024-02-04T15:19:43;14.20;;;2.80;;
60851;SDS011;48553;50.766;2.900;2024-02-04T15:22:44;11.30;;;3.25;;
60851;SDS011;48553;50.766;2.900;2024-02-04T15:25:44;16.83;;;2.90;;
60851;SDS011;48553;50.766;2.900;2024-02-04T15:28:45;9.25;;;2.35;;
60851;SDS011;48553;50.766;2.900;2024-02-04T15:31:48;16.13;;;2.70;;
60851;SDS011;48553;50.766;2.900;2024-02-04T15:34:51;12.10;;;2.50;;
60851;SDS011;48553;50.766;2.900;2024-02-04T15:37:52;12.43;;;2.97;;
60851;SDS011;48553;50.766;2.900;2024-02-04T15:40:52;12.85;;;2.92;;
60851;SDS011;48553;50.766;2.900;2024-02-04T15:43:53;11.48;;;2.63;;
60851;SDS011;48553;50.766;2.900;2024-02-04T15:46:53;14.57;;;2.92;;
60851;SDS011;48553;50.766;2.900;2024-02-04T15:49:54;17.70;;;2.85;;
60851;SDS011;48553;50.766;2.900;2024-02-04T15:52:55;14.23;;;2.95;;
60851;SDS011;48553;50.766;2.900;2024-02-04T15:55:56;13.77;;;3.03;;
60851;SDS011;48553;50.766;2.900;2024-02-04T15:59:00;17.88;;;2.75;;
60851;SDS011;48553;50.766;2.900;2024-02-04T16:02:06;16.92;;;3.42;;
60851;SDS011;48553;50.766;2.900;2024-02-04T16:05:11;17.75;;;3.10;;
60851;SDS011;48553;50.766;2.900;2024-02-04T16:08:12;15.65;;;3.22;;
60851;SDS011;48553;50.766;2.900;2024-02-04T16:11:15;17.38;;;3.17;;
60851;SDS011;48553;50.766;2.900;2024-02-04T16:14:18;14.27;;;2.75;;
60851;SDS011;48553;50.766;2.900;2024-02-04T16:17:20;17.00;;;2.92;;
60851;SDS011;48553;50.766;2.900;2024-02-04T16:20:21;17.65;;;2.88;;
60851;SDS011;48553;50.766;2.900;2024-02-04T16:23:22;16.10;;;3.17;;
60851;SDS011;48553;50.766;2.900;2024-02-04T16:26:23;17.08;;;2.95;;
60851;SDS011;48553;50.766;2.900;2024-02-04T16:29:23;13.93;;;3.28;;
60851;SDS011;48553;50.766;2.900;2024-02-04T16:32:27;22.80;;;3.60;;
60851;SDS011;48553;50.766;2.900;2024-02-04T16:35:28;12.75;;;3.33;;
60851;SDS011;48553;50.766;2.900;2024-02-04T16:38:28;16.25;;;3.80;;
60851;SDS011;48553;50.766;2.900;2024-02-04T16:41:28;19.27;;;3.67;;
60851;SDS011;48553;50.766;2.900;2024-02-04T16:44:29;24.75;;;3.42;;
60851;SDS011;48553;50.766;2.900;2024-02-04T16:47:29;17.30;;;3.20;;
60851;SDS011;48553;50.766;2.900;2024-02-04T16:50:31;19.67;;;3.50;;
60851;SDS011;48553;50.766;2.900;2024-02-04T16:53:32;17.98;;;3.58;;
60851;SDS011;48553;50.766;2.900;2024-02-04T16:56:35;21.73;;;3.40;;
60851;SDS011;48553;50.766;2.900;2024-02-04T16:59:37;18.85;;;3.47;;
60851;SDS011;48553;50.766;2.900;2024-02-04T17:02:37;17.80;;;3.13;;
60851;SDS011;48553;50.766;2.900;2024-02-04T17:05:38;15.52;;;3.15;;
60851;SDS011;48553;50.766;2.900;2024-02-04T17:08:39;20.40;;;3.47;;
60851;SDS011;48553;50.766;2.900;2024-02-04T17:11:43;21.13;;;3.92;;
60851;SDS011;48553;50.766;2.900;2024-02-04T17:14:46;19.30;;;3.72;;
60851;SDS011;48553;50.766;2.900;2024-02-04T17:17:48;16.58;;;3.35;;
60851;SDS011;48553;50.766;2.900;2024-02-04T17:21:00;23.52;;;3.60;;
60851;SDS011;48553;50.766;2.900;2024-02-04T17:24:14;16.55;;;3.70;;
60851;SDS011;48553;50.766;2.900;2024-02-04T17:27:18;19.60;;;3.88;;
60851;SDS011;48553;50.766;2.900;2024-02-04T17:30:19;21.23;;;3.63;;
60851;SDS011;48553;50.766;2.900;2024-02-04T17:33:19;16.05;;;3.75;;
60851;SDS011;48553;50.766;2.900;2024-02-04T17:36:20;15.63;;;3.45;;
60851;SDS011;48553;50.766;2.900;2024-02-04T17:39:20;21.70;;;3.78;;
60851;SDS011;48553;50.766;2.900;2024-02-04T17:42:21;12.38;;;3.47;;
60851;SDS011;48553;50.766;2.900;2024-02-04T17:45:23;14.35;;;3.75;;
60851;SDS011;48553;50.766;2.900;2024-02-04T17:48:23;18.05;;;3.40;;
60851;SDS011;48553;50.766;2.900;2024-02-04T17:51:23;20.80;;;3.72;;
60851;SDS011;48553;50.766;2.900;2024-02-04T17:54:24;16.13;;;3.40;;
60851;SDS011;48553;50.766;2.900;2024-02-04T17:57:24;19.33;;;3.50;;
60851;SDS011;48553;50.766;2.900;2024-02-04T18:00:25;14.85;;;3.50;;
60851;SDS011;48553;50.766;2.900;2024-02-04T18:03:25;16.20;;;3.67;;
60851;SDS011;48553;50.766;2.900;2024-02-04T18:06:26;15.13;;;4.13;;
60851;SDS011;48553;50.766;2.900;2024-02-04T18:09:27;16.33;;;3.65;;
60851;SDS011;48553;50.766;2.900;2024-02-04T18:12:30;16.20;;;4.15;;
60851;SDS011;48553;50.766;2.900;2024-02-04T18:15:33;17.65;;;4.18;;